»·PEaware :: N901TX CYRJ-KTHA

N901TX :: CYRJ-KTHA

FLIGHT INFORMATION

Flight Status: Arrived
Operator: Privately registered:
United States
More flights under this callsign
Pilot: Andrew J. (13363)
Aircraft: SOCATA TBM-900
(TBM9)
More flights by this aircraft type
Origin: CYRJ Roberval
Canada
Destination: KTHA Tullahoma Regl/Northern
United States
More flights between these airports :: More routes between these airports
Route: YMX ART HANKK Q29 CREEP J39 BNA FOVEK
File this flight plan on PilotEdge
Remarks:
Altitude:
(Current/Filed)
30,000ft
Speed:
(Current/Filed)
310kts
Departed: 30-Mar-20 11:13 PM
Arrived: 31-Mar-20 02:45 AM
Distance/Time
Traveled:
1002nm/3:32
Distance/Time
To Go:
Arrived

Flight Plot

Page will automatically refresh every two minutes.


Map Options




Map Legend


Flown Route
Filed Route
Departure Airport
Arrival Airport
Navaid (VOR, NDB)
Fix

Horizontal Profiles

Position Reports

Time Latitude Longitude Heading Altitude Ground
Speed
30-Mar-20 23:03 48.525256 -72.268871 231 571ft 0kts
30-Mar-20 23:04 48.525256 -72.268871 231 571ft 0kts
30-Mar-20 23:05 48.525256 -72.268871 231 571ft 0kts
30-Mar-20 23:06 48.525256 -72.268871 231 571ft 0kts
30-Mar-20 23:07 48.525255 -72.268871 231 572ft 0kts
30-Mar-20 23:08 48.525792 -72.270328 257 572ft 8kts
30-Mar-20 23:09 48.525792 -72.270328 257 572ft 8kts
30-Mar-20 23:10 48.525668 -72.271199 253 573ft 0kts
30-Mar-20 23:11 48.525451 -72.271741 227 573ft 2kts
30-Mar-20 23:12 48.520201 -72.266293 142 567ft 100kts
30-Mar-20 23:13 48.493658 -72.274118 227 1952ft 123kts
30-Mar-20 23:14 48.468627 -72.314290 227 3360ft 137kts
30-Mar-20 23:15 48.442229 -72.356764 227 4852ft 141kts
30-Mar-20 23:16 48.415123 -72.400933 227 6232ft 147kts
30-Mar-20 23:17 48.387244 -72.447414 227 7642ft 151kts
30-Mar-20 23:18 48.356666 -72.490715 195 9061ft 152kts
30-Mar-20 23:19 48.315996 -72.511891 194 10571ft 154kts
30-Mar-20 23:20 48.275216 -72.534453 194 12037ft 155kts
30-Mar-20 23:21 48.233735 -72.557909 194 13451ft 160kts
30-Mar-20 23:22 48.191211 -72.581738 194 14905ft 164kts
30-Mar-20 23:23 48.147724 -72.605886 194 16253ft 169kts
30-Mar-20 23:24 48.102811 -72.630581 195 17694ft 172kts
30-Mar-20 23:25 48.056921 -72.655587 194 19051ft 177kts
30-Mar-20 23:26 48.009961 -72.680973 194 20378ft 181kts
30-Mar-20 23:27 47.961687 -72.706854 194 21693ft 186kts
30-Mar-20 23:28 47.912639 -72.735690 209 22936ft 194kts
30-Mar-20 23:29 47.867443 -72.780591 209 24139ft 198kts
30-Mar-20 23:30 47.820829 -72.827155 210 25269ft 202kts
30-Mar-20 23:31 47.773429 -72.875432 210 26322ft 208kts
30-Mar-20 23:32 47.724992 -72.924537 210 27323ft 210kts
30-Mar-20 23:33 47.676875 -72.973240 210 28296ft 208kts
30-Mar-20 23:34 47.628902 -73.021823 210 29265ft 205kts
30-Mar-20 23:35 47.582222 -73.069293 210 30205ft 201kts
30-Mar-20 23:37 47.531443 -73.120445 211 30257ft 235kts
30-Mar-20 23:38 47.467293 -73.143838 197 30089ft 258kts
30-Mar-20 23:39 47.398738 -73.194407 205 30234ft 286kts
30-Mar-20 23:40 47.326719 -73.252328 205 30227ft 301kts
30-Mar-20 23:41 47.252036 -73.312359 205 30223ft 307kts
30-Mar-20 23:42 47.175932 -73.373409 206 30222ft 311kts
30-Mar-20 23:43 47.099536 -73.434411 206 30221ft 313kts
30-Mar-20 23:44 47.022721 -73.495498 206 30221ft 313kts
30-Mar-20 23:45 46.945637 -73.556603 208 30224ft 314kts
30-Mar-20 23:46 46.871746 -73.615083 209 30219ft 311kts
30-Mar-20 23:47 46.795741 -73.675014 208 30217ft 308kts
30-Mar-20 23:48 46.720307 -73.734277 208 30204ft 307kts
30-Mar-20 23:49 46.644516 -73.793631 208 30170ft 307kts
30-Mar-20 23:50 46.569066 -73.852525 208 30148ft 307kts
30-Mar-20 23:51 46.493720 -73.911156 208 30145ft 306kts
30-Mar-20 23:52 46.418312 -73.969648 208 30146ft 306kts
30-Mar-20 23:53 46.343123 -74.027786 208 30146ft 306kts
30-Mar-20 23:54 46.267502 -74.086078 208 30146ft 306kts
30-Mar-20 23:55 46.192188 -74.143948 208 30147ft 306kts
30-Mar-20 23:56 46.116706 -74.201763 208 30146ft 306kts
30-Mar-20 23:57 46.041273 -74.259368 208 30147ft 306kts
30-Mar-20 23:58 45.966253 -74.316470 208 30147ft 306kts
30-Mar-20 23:58 45.902883 -74.364577 208 30148ft 306kts
31-Mar-20 00:00 45.820032 -74.437516 213 30145ft 306kts
31-Mar-20 00:00 45.759888 -74.491926 213 30145ft 305kts
31-Mar-20 00:01 45.687518 -74.557197 213 30145ft 305kts
31-Mar-20 00:03 45.603524 -74.632701 213 30146ft 306kts
31-Mar-20 00:03 45.544545 -74.685557 212 30125ft 306kts
31-Mar-20 00:05 45.459811 -74.761263 212 30096ft 307kts
31-Mar-20 00:06 45.387260 -74.825863 212 30091ft 306kts
31-Mar-20 00:07 45.314592 -74.890373 212 30091ft 306kts
31-Mar-20 00:07 45.254229 -74.943809 212 30091ft 307kts
31-Mar-20 00:08 45.181904 -75.007657 212 30092ft 308kts
31-Mar-20 00:09 45.108820 -75.071965 212 30092ft 309kts
31-Mar-20 00:10 45.035288 -75.136437 213 30093ft 311kts
31-Mar-20 00:11 44.961690 -75.200816 215 30084ft 306kts
31-Mar-20 00:12 44.890610 -75.262849 215 30066ft 295kts
31-Mar-20 00:13 44.821241 -75.323175 215 30057ft 290kts
31-Mar-20 00:14 44.752503 -75.382782 215 30052ft 288kts
31-Mar-20 00:15 44.655129 -75.466926 215 30052ft 287kts
31-Mar-20 00:16 44.553320 -75.554538 215 30052ft 287kts
31-Mar-20 00:17 44.451472 -75.641834 215 30050ft 287kts
31-Mar-20 00:18 44.365585 -75.715160 214 30044ft 287kts
31-Mar-20 00:19 44.274245 -75.792862 214 30037ft 288kts
31-Mar-20 00:20 44.182186 -75.870901 214 30037ft 288kts
31-Mar-20 00:21 44.090273 -75.948513 214 30036ft 288kts
31-Mar-20 00:22 43.996921 -76.027059 214 30036ft 288kts
31-Mar-20 00:23 43.908938 -76.110073 220 30035ft 286kts
31-Mar-20 00:24 43.826269 -76.196937 220 30035ft 286kts
31-Mar-20 00:25 43.742550 -76.284542 220 30044ft 285kts
31-Mar-20 00:26 43.655646 -76.375151 220 30053ft 285kts
31-Mar-20 00:27 43.574174 -76.459797 220 30052ft 285kts
31-Mar-20 00:28 43.491228 -76.545669 220 30053ft 285kts
31-Mar-20 00:29 43.406451 -76.633117 220 30055ft 285kts
31-Mar-20 00:30 43.323239 -76.718656 219 30062ft 286kts
31-Mar-20 00:31 43.236654 -76.807347 219 30065ft 286kts
31-Mar-20 00:32 43.147856 -76.897954 220 30071ft 300kts
31-Mar-20 00:33 43.053219 -76.994152 221 30068ft 304kts
31-Mar-20 00:34 42.964050 -77.084288 226 30063ft 301kts
31-Mar-20 00:35 42.887224 -77.175168 254 30037ft 258kts
31-Mar-20 00:36 42.848153 -77.288815 255 30030ft 244kts
31-Mar-20 00:37 42.810029 -77.398129 255 30039ft 239kts
31-Mar-20 00:38 42.771482 -77.508297 255 30045ft 237kts
31-Mar-20 00:39 42.732222 -77.619865 255 30045ft 236kts
31-Mar-20 00:40 42.702583 -77.703817 255 30059ft 237kts
31-Mar-20 00:41 42.661080 -77.820997 254 30055ft 239kts
31-Mar-20 00:42 42.620025 -77.936455 254 30054ft 239kts
31-Mar-20 00:43 42.577276 -78.056044 254 30044ft 239kts
31-Mar-20 00:44 42.534593 -78.175064 254 30027ft 239kts
31-Mar-20 00:45 42.493061 -78.290324 254 30009ft 238kts
31-Mar-20 00:46 42.449456 -78.410881 254 30011ft 238kts
31-Mar-20 00:47 42.409151 -78.521826 254 30015ft 238kts
31-Mar-20 00:48 42.368954 -78.632035 254 30009ft 237kts
31-Mar-20 00:49 42.328548 -78.742413 254 30024ft 240kts
31-Mar-20 00:50 42.286748 -78.856072 254 30048ft 240kts
31-Mar-20 00:51 42.245399 -78.968074 254 30056ft 240kts
31-Mar-20 00:52 42.202686 -79.083330 255 30054ft 238kts
31-Mar-20 00:53 42.168702 -79.198689 263 30059ft 225kts
31-Mar-20 00:54 42.138618 -79.315346 263 30049ft 222kts
31-Mar-20 00:55 42.110749 -79.422877 264 30051ft 221kts
31-Mar-20 00:56 42.081382 -79.535710 264 30049ft 220kts
31-Mar-20 00:57 42.051586 -79.649634 263 30046ft 219kts
31-Mar-20 00:58 42.024603 -79.752281 263 30074ft 222kts
31-Mar-20 00:59 41.994308 -79.867175 263 30091ft 223kts
31-Mar-20 01:00 41.962987 -79.985163 263 30101ft 223kts
31-Mar-20 01:01 41.931575 -80.102956 263 30090ft 222kts
31-Mar-20 01:02 41.899875 -80.221377 263 30096ft 222kts
31-Mar-20 01:03 41.872033 -80.324819 263 30077ft 219kts
31-Mar-20 01:04 41.839879 -80.443923 263 30075ft 218kts
31-Mar-20 01:05 41.808076 -80.560902 263 30077ft 218kts
31-Mar-20 01:06 41.775662 -80.669821 261 30103ft 220kts
31-Mar-20 01:07 41.740627 -80.784443 261 30105ft 223kts
31-Mar-20 01:08 41.705165 -80.899878 261 30102ft 224kts
31-Mar-20 01:09 41.669590 -81.015167 261 30096ft 226kts
31-Mar-20 01:10 41.633908 -81.130240 262 30099ft 227kts
31-Mar-20 01:11 41.597304 -81.247921 262 30094ft 228kts
31-Mar-20 01:12 41.562492 -81.359228 261 30087ft 228kts
31-Mar-20 01:13 41.524626 -81.479842 261 30087ft 227kts
31-Mar-20 01:14 41.486053 -81.602162 261 30082ft 227kts
31-Mar-20 01:15 41.448635 -81.720300 261 30104ft 229kts
31-Mar-20 01:16 41.408176 -81.847396 261 30110ft 231kts
31-Mar-20 01:17 41.368291 -81.972144 260 30111ft 231kts
31-Mar-20 01:18 41.325495 -82.094789 257 30109ft 235kts
31-Mar-20 01:19 41.280297 -82.207714 257 30108ft 236kts
31-Mar-20 01:20 41.235873 -82.318170 257 30109ft 235kts
31-Mar-20 01:21 41.190622 -82.430254 257 30099ft 235kts
31-Mar-20 01:22 41.144844 -82.543205 257 30084ft 235kts
31-Mar-20 01:23 41.085278 -82.649557 249 30080ft 242kts
31-Mar-20 01:24 41.028521 -82.747730 248 30097ft 231kts
31-Mar-20 01:25 40.974495 -82.840888 247 30090ft 214kts
31-Mar-20 01:26 40.923753 -82.928048 246 30087ft 199kts
31-Mar-20 01:27 40.882155 -82.999431 245 30092ft 193kts
31-Mar-20 01:28 40.834031 -83.081598 245 30089ft 189kts
31-Mar-20 01:29 40.785262 -83.164754 245 30085ft 188kts
31-Mar-20 01:30 40.735890 -83.248800 245 30087ft 188kts
31-Mar-20 01:31 40.683444 -83.331596 240 30087ft 193kts
31-Mar-20 01:32 40.625540 -83.407172 240 30083ft 193kts
31-Mar-20 01:33 40.564489 -83.486424 240 30088ft 193kts
31-Mar-20 01:34 40.502731 -83.566263 241 30090ft 193kts
31-Mar-20 01:35 40.439946 -83.647343 240 30100ft 191kts
31-Mar-20 01:36 40.379866 -83.724672 239 30126ft 196kts
31-Mar-20 01:37 40.316391 -83.806119 240 30124ft 198kts
31-Mar-20 01:38 40.253370 -83.886789 240 30125ft 198kts
31-Mar-20 01:39 40.191283 -83.966049 239 30119ft 197kts
31-Mar-20 01:40 40.130762 -84.043109 240 30114ft 197kts
31-Mar-20 01:41 40.068192 -84.122535 240 30113ft 196kts
31-Mar-20 01:42 40.010533 -84.195587 239 30113ft 196kts
31-Mar-20 01:43 39.953211 -84.267963 240 30112ft 187kts
31-Mar-20 01:44 39.896842 -84.325777 230 30113ft 199kts
31-Mar-20 01:45 39.835369 -84.370116 230 30103ft 200kts
31-Mar-20 01:46 39.762742 -84.422174 229 30104ft 199kts
31-Mar-20 01:47 39.687654 -84.475810 230 30106ft 198kts
31-Mar-20 01:48 39.611872 -84.529842 230 30108ft 198kts
31-Mar-20 01:49 39.536516 -84.583430 230 30107ft 197kts
31-Mar-20 01:50 39.460366 -84.637378 230 30101ft 197kts
31-Mar-20 01:51 39.387847 -84.688709 229 30130ft 201kts
31-Mar-20 01:52 39.311724 -84.742433 228 30124ft 203kts
31-Mar-20 01:53 39.238238 -84.794141 229 30125ft 203kts
31-Mar-20 01:54 39.168389 -84.843192 229 30121ft 203kts
31-Mar-20 01:55 39.097582 -84.892796 229 30119ft 203kts
31-Mar-20 01:56 39.026603 -84.942426 229 30118ft 204kts
31-Mar-20 01:57 38.953300 -84.993621 227 30120ft 208kts
31-Mar-20 01:58 38.878442 -85.045704 225 30129ft 212kts
31-Mar-20 01:59 38.797792 -85.101641 224 30137ft 211kts
31-Mar-20 02:00 38.715896 -85.158299 224 30136ft 206kts
31-Mar-20 02:01 38.636858 -85.212817 224 30138ft 196kts
31-Mar-20 02:02 38.558665 -85.266679 224 30139ft 193kts
31-Mar-20 02:04 38.482427 -85.319041 224 30121ft 192kts
31-Mar-20 02:05 38.406428 -85.371109 224 30106ft 192kts
31-Mar-20 02:06 38.332487 -85.421641 224 30094ft 191kts
31-Mar-20 02:07 38.260159 -85.470989 224 30098ft 191kts
31-Mar-20 02:08 38.188068 -85.520031 224 30095ft 190kts
31-Mar-20 02:09 38.115534 -85.569252 224 30093ft 190kts
31-Mar-20 02:10 38.028035 -85.596624 211 30088ft 209kts
31-Mar-20 02:11 37.936426 -85.619870 211 30075ft 209kts
31-Mar-20 02:12 37.851260 -85.641464 211 30080ft 209kts
31-Mar-20 02:13 37.763520 -85.663669 210 30106ft 214kts
31-Mar-20 02:14 37.671024 -85.686962 207 30092ft 228kts
31-Mar-20 02:15 37.575033 -85.711083 207 30086ft 230kts
31-Mar-20 02:16 37.480125 -85.734905 207 30090ft 231kts
31-Mar-20 02:17 37.388854 -85.757719 207 30082ft 231kts
31-Mar-20 02:18 37.299054 -85.780098 207 30066ft 230kts
31-Mar-20 02:19 37.205821 -85.803296 207 30069ft 230kts
31-Mar-20 02:20 37.112732 -85.826411 207 30063ft 230kts
31-Mar-20 02:21 37.019284 -85.849548 207 30064ft 227kts
31-Mar-20 02:22 36.927423 -85.872247 207 30060ft 223kts
31-Mar-20 02:23 36.847287 -85.891993 207 29981ft 226kts
31-Mar-20 02:24 36.758265 -85.913960 204 28461ft 258kts
31-Mar-20 02:25 36.661460 -85.937639 202 26494ft 269kts
31-Mar-20 02:26 36.561788 -85.962037 201 24494ft 272kts
31-Mar-20 02:27 36.458300 -85.987284 199 22398ft 272kts
31-Mar-20 02:27 36.385088 -86.005112 198 20776ft 269kts
31-Mar-20 02:29 36.295357 -86.026910 197 18561ft 271kts
31-Mar-20 02:29 36.233382 -86.041930 196 17034ft 272kts
31-Mar-20 02:30 36.158502 -86.048022 188 15185ft 270kts
31-Mar-20 02:32 36.070434 -86.052940 186 12710ft 268kts
31-Mar-20 02:32 36.007890 -86.056467 184 10824ft 265kts
31-Mar-20 02:33 35.934121 -86.060511 181 8886ft 256kts
31-Mar-20 02:34 35.863771 -86.064335 180 7812ft 248kts
31-Mar-20 02:36 35.784009 -86.068685 179 6737ft 238kts
31-Mar-20 02:36 35.728388 -86.071722 179 5869ft 239kts
31-Mar-20 02:37 35.660904 -86.075405 179 4765ft 244kts
31-Mar-20 02:38 35.606374 -86.112438 248 3960ft 242kts
31-Mar-20 02:39 35.580302 -86.189587 249 3459ft 243kts
31-Mar-20 02:40 35.537059 -86.244490 178 2998ft 240kts
31-Mar-20 02:41 35.472841 -86.243849 180 2752ft 231kts
31-Mar-20 02:42 35.412026 -86.243639 179 1570ft 183kts
31-Mar-20 02:43 35.382477 -86.243567 179 1080ft 61kts
31-Mar-20 02:45 35.376886 -86.241946 55 1077ft 9kts
31-Mar-20 02:45 35.378360 -86.240397 5 1075ft 8kts
31-Mar-20 02:46 35.379490 -86.240023 357 1073ft 0kts
31-Mar-20 02:47 35.379490 -86.240023 357 1073ft 0kts

Navigation Log

Ident Type
Flight plan parsing failed, navigation log unavailable